Time;durP1;ratioP1;P1;durP2;ratioP2;P2;SDS_P1;SDS_P2;PMS_P1;PMS_P2;Temp;Humidity;BMP_temperature;BMP_pressure;BME280_temperature;BME280_humidity;BME280_pressure;Samples;Min_cycle;Max_cycle;Signal;HPM_P1;HPM_P2
2023/04/04 07:40:15;;;;;;;1.65;0.98;;;16.80;36.70;;;;;;5044960;28;45170;-79
2023/04/04 07:42:44;;;;;;;27.67;3.13;;;16.40;35.90;;;;;;5063828;28;45308;-80
2023/04/04 07:45:11;;;;;;;5.05;1.67;;;16.50;40.10;;;;;;5066456;28;45736;-79
2023/04/04 07:47:42;;;;;;;6.30;1.02;;;16.50;36.90;;;;;;5066787;28;45257;-79
2023/04/04 07:50:09;;;;;;;5.25;0.90;;;16.50;36.60;;;;;;5066597;28;45307;-78
2023/04/04 07:52:36;;;;;;;2.75;0.73;;;16.50;36.30;;;;;;5066351;28;45646;-80
2023/04/04 07:55:06;;;;;;;1.52;0.80;;;16.50;36.20;;;;;;5066589;28;47428;-80
2023/04/04 07:57:36;;;;;;;2.88;0.80;;;16.50;36.00;;;;;;5065994;28;45316;-81
2023/04/04 08:00:04;;;;;;;3.65;0.80;;;16.50;36.10;;;;;;5066253;28;45229;-80
2023/04/04 08:02:31;;;;;;;4.40;1.00;;;16.50;36.00;;;;;;5066492;28;45079;-82
2023/04/04 08:04:57;;;;;;;3.22;0.73;;;16.50;35.90;;;;;;5065801;28;45427;-81
2023/04/04 08:07:24;;;;;;;1.92;0.80;;;16.50;36.80;;;;;;5066274;28;46204;-80
2023/04/04 08:09:51;;;;;;;1.60;0.80;;;16.50;37.40;;;;;;5066115;28;45159;-79
2023/04/04 08:12:18;;;;;;;1.33;0.57;;;16.60;37.80;;;;;;5066518;28;45432;-78
2023/04/04 08:14:46;;;;;;;2.15;0.82;;;16.60;37.80;;;;;;5070825;28;48872;-79
2023/04/04 08:17:13;;;;;;;1.70;0.63;;;16.60;38.10;;;;;;5065219;28;45226;-80
2023/04/04 08:19:40;;;;;;;0.88;0.60;;;16.60;38.20;;;;;;5065942;28;45327;-81
2023/04/04 08:22:08;;;;;;;0.70;0.50;;;16.60;38.40;;;;;;5066279;28;45297;-79
2023/04/04 08:24:35;;;;;;;2.33;0.70;;;16.60;38.50;;;;;;5065858;28;48188;-80
2023/04/04 08:27:03;;;;;;;2.03;0.57;;;16.70;38.70;;;;;;5065918;28;45173;-80
2023/04/04 08:29:31;;;;;;;1.95;1.15;;;16.70;38.60;;;;;;5066082;28;45423;-80
2023/04/04 08:31:59;;;;;;;0.65;0.50;;;16.70;38.50;;;;;;5065884;28;45519;-80
2023/04/04 08:34:27;;;;;;;1.02;0.40;;;16.70;38.50;;;;;;5065618;28;46512;-80
2023/04/04 08:36:54;;;;;;;1.27;0.55;;;16.70;38.60;;;;;;5065944;28;45354;-80
2023/04/04 08:39:20;;;;;;;1.75;0.45;;;16.80;38.70;;;;;;5066046;28;45361;-80
2023/04/04 08:41:47;;;;;;;1.00;0.45;;;16.80;38.60;;;;;;5065309;28;45489;-80
2023/04/04 08:44:19;;;;;;;1.08;0.70;;;16.80;38.40;;;;;;5065950;28;47412;-80
2023/04/04 08:46:47;;;;;;;0.93;0.50;;;16.80;38.70;;;;;;5065769;28;45308;-79
2023/04/04 08:49:20;;;;;;;1.23;0.60;;;16.80;39.80;;;;;;5066260;28;45100;-80
2023/04/04 08:51:47;;;;;;;2.08;0.73;;;16.80;38.80;;;;;;5066251;28;45233;-80
2023/04/04 08:54:16;;;;;;;0.50;0.50;;;16.80;38.60;;;;;;5065363;28;46290;-80
2023/04/04 08:56:45;;;;;;;0.60;0.50;;;16.80;38.50;;;;;;5065526;28;45393;-79
2023/04/04 08:59:15;;;;;;;0.70;0.35;;;16.80;38.50;;;;;;5065197;28;45206;-81
2023/04/04 09:01:42;;;;;;;0.52;0.40;;;16.80;38.60;;;;;;5065639;28;45204;-80
2023/04/04 09:04:12;;;;;;;2.05;0.60;;;16.80;38.90;;;;;;5065313;28;45578;-81
2023/04/04 09:06:44;;;;;;;1.70;0.75;;;16.80;38.70;;;;;;5065810;28;45122;-81
2023/04/04 09:09:14;;;;;;;0.68;0.45;;;16.80;38.60;;;;;;5070331;28;45293;-81
2023/04/04 09:11:45;;;;;;;0.68;0.43;;;16.80;38.60;;;;;;5065998;28;45570;-81
2023/04/04 09:14:15;;;;;;;1.98;0.50;;;16.80;38.40;;;;;;5064996;28;46615;-80
2023/04/04 09:16:44;;;;;;;0.70;0.50;;;16.90;38.50;;;;;;5064901;28;45236;-80
2023/04/04 09:19:14;;;;;;;1.67;0.60;;;16.90;38.10;;;;;;5064841;28;47098;-80
2023/04/04 09:21:46;;;;;;;0.60;0.40;;;16.90;37.80;;;;;;5065147;28;45314;-68
2023/04/04 09:24:14;;;;;;;2.22;0.73;;;16.90;37.80;;;;;;5056471;28;46410;-74
2023/04/04 09:26:47;;;;;;;1.60;0.40;;;16.90;39.50;;;;;;5044962;28;45293;-74
2023/04/04 09:29:14;;;;;;;2.05;0.43;;;16.90;40.00;;;;;;5046664;28;45168;-74
2023/04/04 09:31:45;;;;;;;1.65;0.75;;;16.80;39.90;;;;;;5048353;28;45501;-74
2023/04/04 09:34:12;;;;;;;4.22;0.40;;;16.80;39.90;;;;;;5048290;28;45581;-75
2023/04/04 09:36:40;;;;;;;0.60;0.50;;;16.80;39.90;;;;;;5048407;28;45123;-75
2023/04/04 09:39:08;;;;;;;1.23;0.40;;;16.80;39.90;;;;;;5048311;28;45228;-75
2023/04/04 09:41:38;;;;;;;1.65;0.57;;;16.80;40.00;;;;;;5048028;28;45532;-75
2023/04/04 09:44:06;;;;;;;1.52;0.43;;;16.80;40.30;;;;;;5048175;28;45233;-75
2023/04/04 09:46:34;;;;;;;0.77;0.40;;;16.80;40.60;;;;;;5048534;28;45140;-75
2023/04/04 09:49:01;;;;;;;1.85;0.60;;;16.80;41.20;;;;;;5048138;28;45155;-75
2023/04/04 09:51:34;;;;;;;0.98;0.43;;;16.80;41.70;;;;;;5048088;28;45319;-75
2023/04/04 09:54:01;;;;;;;5.35;0.50;;;16.90;41.90;;;;;;5047957;28;47331;-69
2023/04/04 09:56:30;;;;;;;40.65;3.03;;;16.90;41.80;;;;;;5062063;28;45245;-73
2023/04/04 09:58:56;;;;;;;22.42;1.65;;;16.90;45.20;;;;;;5068147;28;45324;-74
2023/04/04 10:01:24;;;;;;;4.95;0.90;;;17.00;44.30;;;;;;5068165;28;45434;-73
2023/04/04 10:03:53;;;;;;;8.50;1.23;;;16.90;43.90;;;;;;5068129;28;45789;-72
2023/04/04 10:06:21;;;;;;;1.80;0.45;;;16.90;42.90;;;;;;5067574;28;45807;-73
2023/04/04 10:08:48;;;;;;;4.25;0.73;;;16.90;42.80;;;;;;5067963;28;45106;-73
2023/04/04 10:11:31;;;;;;;4.47;0.60;;;16.90;42.90;;;;;;5067771;28;45197;-73
2023/04/04 10:13:58;;;;;;;5.28;0.80;;;16.90;43.10;;;;;;5067308;28;45496;-73
2023/04/04 10:16:25;;;;;;;1.77;0.70;;;16.90;42.30;;;;;;5066952;28;46186;-72
2023/04/04 10:18:53;;;;;;;2.47;0.90;;;16.90;42.40;;;;;;5067188;28;45331;-73
2023/04/04 10:21:20;;;;;;;2.63;0.68;;;16.90;42.00;;;;;;5067324;28;45388;-73
2023/04/04 10:23:48;;;;;;;1.50;0.70;;;16.90;42.20;;;;;;5048049;28;45651;-72
2023/04/04 10:26:15;;;;;;;1.20;0.65;;;16.90;42.40;;;;;;5053773;28;45349;-73
2023/04/04 10:28:44;;;;;;;1.38;0.45;;;16.90;42.00;;;;;;5067399;28;45162;-73
2023/04/04 10:31:17;;;;;;;2.08;0.50;;;16.90;41.90;;;;;;5067653;28;45286;-73
2023/04/04 10:33:50;;;;;;;2.53;0.63;;;16.90;41.60;;;;;;5067028;28;47813;-73
2023/04/04 10:36:22;;;;;;;2.50;0.57;;;16.90;41.70;;;;;;5067339;28;45360;-73
2023/04/04 10:38:58;;;;;;;0.70;0.50;;;16.90;41.30;;;;;;5067014;28;45319;-73
2023/04/04 10:41:27;;;;;;;1.23;0.65;;;16.90;40.90;;;;;;5066816;28;45447;-73
2023/04/04 10:43:59;;;;;;;2.10;0.80;;;16.90;41.60;;;;;;5066869;28;46776;-73
2023/04/04 10:46:29;;;;;;;1.60;0.55;;;17.00;41.00;;;;;;5075414;28;45343;-73
2023/04/04 10:48:57;;;;;;;0.32;0.32;;;16.90;41.40;;;;;;5067221;28;45209;-73
2023/04/04 10:51:25;;;;;;;1.50;0.50;;;16.90;40.70;;;;;;5075220;28;45168;-73
2023/04/04 10:53:53;;;;;;;0.75;0.50;;;16.90;40.90;;;;;;5087223;28;45466;-73
2023/04/04 10:56:21;;;;;;;1.42;0.57;;;16.90;41.40;;;;;;5087161;28;45655;-72
2023/04/04 10:58:49;;;;;;;0.60;0.30;;;16.90;41.40;;;;;;5087240;28;45157;-72
2023/04/04 11:01:20;;;;;;;1.55;0.50;;;16.90;41.40;;;;;;5071615;28;45591;-73
2023/04/04 11:04:16;;;;;;;1.15;0.82;;;16.90;41.60;;;;;;5066773;28;46318;-73
2023/04/04 11:07:10;;;;;;;1.25;0.52;;;16.90;41.50;;;;;;5085960;28;45151;-74
2023/04/04 11:10:12;;;;;;;0.88;0.40;;;16.90;41.80;;;;;;5087278;28;45202;-73
2023/04/04 11:12:44;;;;;;;1.05;0.40;;;16.90;42.30;;;;;;5087074;28;45463;-73
2023/04/04 11:15:13;;;;;;;0.98;0.50;;;16.90;42.20;;;;;;5072539;28;47431;-73
2023/04/04 11:17:53;;;;;;;0.80;0.50;;;16.90;41.40;;;;;;5076533;28;45374;-74
2023/04/04 11:20:22;;;;;;;1.00;0.30;;;16.90;42.40;;;;;;5087196;28;45157;-73
2023/04/04 11:22:50;;;;;;;1.27;0.55;;;16.90;40.80;;;;;;5072215;28;45301;-73
2023/04/04 11:25:34;;;;;;;3.10;0.55;;;17.00;42.30;;;;;;5066418;28;45211;-73
2023/04/04 11:28:06;;;;;;;3.60;0.60;;;17.00;42.30;;;;;;5046095;28;45280;-73
2023/04/04 11:30:43;;;;;;;0.65;0.38;;;17.00;42.80;;;;;;5046623;28;45303;-73
2023/04/04 11:33:14;;;;;;;0.75;0.40;;;17.00;42.20;;;;;;5046402;28;45178;-73
2023/04/04 11:35:45;;;;;;;1.35;0.47;;;17.00;42.60;;;;;;5044587;28;46200;-72
2023/04/04 11:38:14;;;;;;;2.22;0.70;;;17.00;41.70;;;;;;5046364;28;45426;-73
2023/04/04 11:40:43;;;;;;;0.60;0.50;;;17.00;41.40;;;;;;5046574;28;45245;-73
2023/04/04 11:43:11;;;;;;;0.75;0.40;;;17.00;42.50;;;;;;5046003;28;45621;-73
2023/04/04 11:45:44;;;;;;;0.95;0.50;;;16.90;42.70;;;;;;5046175;28;47047;-73
2023/04/04 11:48:14;;;;;;;2.53;0.60;;;16.90;43.10;;;;;;5046385;28;45707;-73
2023/04/04 11:50:42;;;;;;;2.05;0.60;;;16.90;44.00;;;;;;5045479;28;45428;-73
2023/04/04 11:53:10;;;;;;;2.28;0.50;;;16.90;44.50;;;;;;5046280;28;45332;-72
2023/04/04 11:55:42;;;;;;;1.70;0.70;;;16.90;44.90;;;;;;5056137;28;46281;-72
2023/04/04 11:58:10;;;;;;;0.93;0.38;;;16.90;46.30;;;;;;5065996;28;45216;-72
2023/04/04 12:00:38;;;;;;;3.15;0.77;;;16.90;45.60;;;;;;5065065;28;45204;-72
2023/04/04 12:03:07;;;;;;;6.13;1.55;;;16.90;45.20;;;;;;5066542;28;45155;-73
2023/04/04 12:05:35;;;;;;;3.67;0.85;;;16.90;45.10;;;;;;5066002;28;45447;-73
2023/04/04 12:08:03;;;;;;;5.35;0.95;;;16.90;44.20;;;;;;5066136;28;45095;-73
2023/04/04 12:10:33;;;;;;;2.65;0.65;;;16.90;43.80;;;;;;5066102;28;45344;-73
2023/04/04 12:13:01;;;;;;;1.23;0.60;;;16.90;43.50;;;;;;5066459;28;45511;-73
2023/04/04 12:15:30;;;;;;;3.08;0.65;;;16.90;43.70;;;;;;5066363;28;45478;-73
2023/04/04 12:17:57;;;;;;;1.65;0.70;;;16.90;43.30;;;;;;5066063;28;45232;-73
2023/04/04 12:20:24;;;;;;;0.60;0.50;;;16.90;42.30;;;;;;5066300;28;45231;-73
2023/04/04 12:22:52;;;;;;;1.27;0.63;;;16.90;42.10;;;;;;5066243;28;45582;-73
2023/04/04 12:25:22;;;;;;;0.88;0.52;;;16.90;42.10;;;;;;5065577;28;45209;-73
2023/04/04 12:27:49;;;;;;;1.75;0.70;;;16.90;42.50;;;;;;5065596;28;45155;-73
2023/04/04 12:30:17;;;;;;;2.25;0.85;;;16.90;42.10;;;;;;5065835;28;45233;-73
2023/04/04 12:32:45;;;;;;;0.73;0.57;;;17.00;42.40;;;;;;5065716;28;45416;-73
2023/04/04 12:35:14;;;;;;;1.17;0.65;;;16.90;42.10;;;;;;5065889;28;47716;-73
2023/04/04 12:37:57;;;;;;;2.83;0.70;;;16.90;42.20;;;;;;5065501;28;45809;-73
2023/04/04 12:40:28;;;;;;;1.02;0.47;;;16.90;42.60;;;;;;5065620;28;45238;-73
2023/04/04 12:42:55;;;;;;;0.63;0.60;;;16.90;43.10;;;;;;5065662;28;45410;-73
2023/04/04 12:45:22;;;;;;;2.17;0.38;;;16.90;42.70;;;;;;5064434;28;46526;-71
2023/04/04 12:47:52;;;;;;;5.55;1.05;;;17.00;42.90;;;;;;5042681;28;45413;-71
2023/04/04 12:50:22;;;;;;;5.05;1.17;;;17.00;49.70;;;;;;5055324;28;45312;-68
2023/04/04 12:52:52;;;;;;;6.60;0.80;;;17.00;53.30;;;;;;5042518;28;45441;-73
2023/04/04 12:55:23;;;;;;;4.65;0.93;;;17.10;53.60;;;;;;5076370;28;45300;-73
2023/04/04 12:57:51;;;;;;;4.70;1.08;;;17.00;51.80;;;;;;5081968;28;45237;-73
2023/04/04 13:00:21;;;;;;;4.43;0.75;;;16.90;51.20;;;;;;5065132;28;45130;-73
2023/04/04 13:02:50;;;;;;;2.28;0.82;;;16.90;51.10;;;;;;5051845;28;45339;-73
2023/04/04 13:05:20;;;;;;;1.13;0.50;;;16.90;51.40;;;;;;5071469;28;46514;-73
2023/04/04 13:07:48;;;;;;;1.42;0.70;;;16.80;51.10;;;;;;5079398;28;45242;-72
2023/04/04 13:10:17;;;;;;;1.98;0.60;;;16.80;52.10;;;;;;5072425;27;45512;-72
2023/04/04 13:12:57;;;;;;;2.17;0.90;;;16.80;51.80;;;;;;5057703;28;45355;-72
2023/04/04 13:15:24;;;;;;;6.47;0.70;;;16.80;51.90;;;;;;5055874;28;48151;-72
2023/04/04 13:17:52;;;;;;;1.83;0.80;;;16.80;51.70;;;;;;5068444;28;45266;-72
2023/04/04 13:20:21;;;;;;;1.23;0.50;;;16.80;51.10;;;;;;5068509;28;45134;-73
2023/04/04 13:22:48;;;;;;;1.48;0.73;;;16.80;52.90;;;;;;5068666;28;45212;-74
2023/04/04 13:25:14;;;;;;;2.03;0.77;;;16.80;53.20;;;;;;5068682;28;47335;-73
2023/04/04 13:27:41;;;;;;;1.67;0.70;;;16.80;53.30;;;;;;5068445;28;45660;-73
2023/04/04 13:30:10;;;;;;;1.40;0.70;;;16.80;53.40;;;;;;5068609;28;45181;-74
2023/04/04 13:32:37;;;;;;;1.52;0.70;;;16.90;53.80;;;;;;5068768;28;45311;-74
2023/04/04 13:35:05;;;;;;;1.27;0.65;;;16.90;52.90;;;;;;5068510;28;47339;-74
2023/04/04 13:37:32;;;;;;;0.50;0.50;;;16.90;52.90;;;;;;5068585;28;45234;-73
2023/04/04 13:39:58;;;;;;;1.50;0.70;;;16.90;52.30;;;;;;5068322;28;45087;-73
2023/04/04 13:42:29;;;;;;;0.73;0.65;;;16.90;53.20;;;;;;5068694;28;45451;-72
2023/04/04 13:44:56;;;;;;;1.65;0.80;;;16.90;53.30;;;;;;5067935;28;45492;-73
2023/04/04 13:47:26;;;;;;;1.90;0.82;;;16.90;54.00;;;;;;5067421;28;45181;-74
2023/04/04 13:49:53;;;;;;;4.25;0.90;;;16.90;56.60;;;;;;5070869;28;45401;-73
2023/04/04 13:52:21;;;;;;;1.92;0.73;;;16.80;54.10;;;;;;5071702;28;45380;-73
2023/04/04 13:54:47;;;;;;;0.70;0.55;;;16.90;54.00;;;;;;5069669;28;47125;-73
2023/04/04 13:57:14;;;;;;;1.88;0.47;;;16.80;54.00;;;;;;5057231;28;45265;-73
2023/04/04 13:59:41;;;;;;;2.15;0.90;;;16.80;56.00;;;;;;5082183;28;45260;-73
2023/04/04 14:02:09;;;;;;;1.80;0.82;;;16.80;55.00;;;;;;5072670;28;45297;-73
2023/04/04 14:04:37;;;;;;;1.50;0.73;;;16.80;54.80;;;;;;5078405;28;47295;-72
2023/04/04 14:07:04;;;;;;;1.77;0.70;;;16.80;54.60;;;;;;5086805;28;46055;-72
2023/04/04 14:09:31;;;;;;;2.85;0.57;;;16.80;54.80;;;;;;5070292;28;45310;-72
2023/04/04 14:11:58;;;;;;;0.77;0.60;;;16.90;55.20;;;;;;5074527;28;45419;-73
2023/04/04 14:14:24;;;;;;;1.45;0.75;;;16.90;55.80;;;;;;5066678;28;48607;-74
2023/04/04 14:16:51;;;;;;;1.27;0.68;;;16.90;56.20;;;;;;5067989;28;45328;-73
2023/04/04 14:19:18;;;;;;;0.95;0.40;;;16.90;54.80;;;;;;5067690;28;45130;-73
2023/04/04 14:21:47;;;;;;;1.35;0.68;;;16.90;54.20;;;;;;5067374;28;45130;-73
2023/04/04 14:24:14;;;;;;;0.65;0.50;;;16.90;54.60;;;;;;5067389;28;46299;-73
2023/04/04 14:26:41;;;;;;;0.90;0.55;;;16.90;54.50;;;;;;5067354;28;45378;-73
2023/04/04 14:29:08;;;;;;;1.30;0.75;;;16.90;54.30;;;;;;5067882;28;45313;-74
2023/04/04 14:31:34;;;;;;;0.88;0.60;;;16.90;54.60;;;;;;5067716;28;45435;-73
2023/04/04 14:34:01;;;;;;;0.80;0.47;;;16.90;55.10;;;;;;5067173;28;46570;-73
2023/04/04 14:36:28;;;;;;;2.00;0.70;;;16.90;55.30;;;;;;5067109;28;45238;-73
2023/04/04 14:38:57;;;;;;;1.27;0.70;;;16.90;55.50;;;;;;5066161;28;45454;-72
2023/04/04 14:41:23;;;;;;;0.60;0.40;;;16.90;55.10;;;;;;5065921;28;45601;-72
2023/04/04 14:43:50;;;;;;;1.95;0.40;;;16.90;54.70;;;;;;5057304;28;48275;-72
2023/04/04 14:46:18;;;;;;;1.92;0.60;;;16.90;54.10;;;;;;5065695;28;45194;-73
2023/04/04 14:48:45;;;;;;;1.55;0.60;;;17.00;54.10;;;;;;5063465;28;45331;-73
2023/04/04 14:51:12;;;;;;;0.75;0.52;;;17.00;54.00;;;;;;5056573;28;45840;-73
2023/04/04 14:53:38;;;;;;;1.58;0.50;;;17.00;54.40;;;;;;5064010;28;47520;-73
2023/04/04 14:56:07;;;;;;;2.00;0.80;;;17.00;54.30;;;;;;5086432;28;45165;-73
2023/04/04 14:58:34;;;;;;;0.50;0.35;;;17.00;54.10;;;;;;5060663;28;45429;-72
2023/04/04 15:01:01;;;;;;;1.25;0.60;;;17.00;54.00;;;;;;5066225;28;45424;-73
2023/04/04 15:03:28;;;;;;;0.95;0.70;;;17.00;53.00;;;;;;5057274;28;47465;-74
2023/04/04 15:05:54;;;;;;;0.68;0.68;;;17.00;53.60;;;;;;5054419;28;45252;-73
2023/04/04 15:08:21;;;;;;;0.85;0.50;;;17.00;54.30;;;;;;5061572;28;45173;-73
2023/04/04 15:10:48;;;;;;;0.90;0.63;;;17.00;54.00;;;;;;5056140;28;45608;-73
2023/04/04 15:13:16;;;;;;;1.75;0.60;;;17.00;53.30;;;;;;5079104;28;46617;-73
2023/04/04 15:15:43;;;;;;;1.98;0.68;;;17.00;52.80;;;;;;5066578;28;46084;-73
2023/04/04 15:18:09;;;;;;;0.80;0.60;;;17.00;52.90;;;;;;5066495;28;45208;-74
2023/04/04 15:20:38;;;;;;;2.28;0.60;;;17.00;53.00;;;;;;5066423;28;45147;-73
2023/04/04 15:23:04;;;;;;;2.30;0.60;;;17.00;53.60;;;;;;5065960;28;47700;-73
2023/04/04 15:25:31;;;;;;;2.47;0.70;;;17.00;53.50;;;;;;5074889;27;45210;-73
2023/04/04 15:27:59;;;;;;;2.15;0.70;;;17.00;54.30;;;;;;5076684;28;45275;-73
2023/04/04 15:30:27;;;;;;;1.52;0.50;;;17.00;54.80;;;;;;5067929;28;45574;-73
2023/04/04 15:32:56;;;;;;;1.05;0.50;;;16.90;54.80;;;;;;5065727;28;47204;-73
2023/04/04 15:35:23;;;;;;;1.00;0.65;;;16.90;55.50;;;;;;5065543;28;45231;-73
2023/04/04 15:37:50;;;;;;;0.90;0.50;;;16.90;56.20;;;;;;5074463;28;45308;-73
2023/04/04 15:40:17;;;;;;;1.63;0.50;;;16.90;56.20;;;;;;5065488;28;45582;-73
2023/04/04 15:42:45;;;;;;;1.17;0.52;;;16.90;56.40;;;;;;5072731;28;47396;-73
2023/04/04 15:45:13;;;;;;;1.35;0.70;;;16.90;56.90;;;;;;5065365;28;45957;-73
2023/04/04 15:47:41;;;;;;;3.60;0.70;;;16.90;57.10;;;;;;5060912;28;45759;-73
2023/04/04 15:50:09;;;;;;;0.93;0.60;;;16.90;56.80;;;;;;5071417;28;45699;-73
2023/04/04 15:52:36;;;;;;;0.85;0.55;;;16.90;55.90;;;;;;5063804;28;45718;-72
2023/04/04 15:55:03;;;;;;;0.82;0.50;;;16.90;56.80;;;;;;5043974;28;45887;-69
2023/04/04 15:57:30;;;;;;;1.83;0.80;;;16.90;57.80;;;;;;5077621;28;45247;-71
2023/04/04 15:59:57;;;;;;;1.73;0.70;;;17.00;58.60;;;;;;5060522;28;45320;-71
2023/04/04 16:02:24;;;;;;;3.22;0.70;;;17.00;57.10;;;;;;5067653;28;46860;-71
2023/04/04 16:04:52;;;;;;;1.48;0.60;;;17.00;57.70;;;;;;5064347;28;45716;-72
2023/04/04 16:07:19;;;;;;;0.68;0.47;;;17.00;56.50;;;;;;5049094;28;45379;-71
2023/04/04 16:09:45;;;;;;;1.85;0.75;;;17.00;57.30;;;;;;5052433;28;45179;-72
2023/04/04 16:12:12;;;;;;;2.20;1.00;;;17.00;57.10;;;;;;5044047;28;45282;-71
2023/04/04 16:14:39;;;;;;;2.13;0.60;;;17.00;56.90;;;;;;5060237;28;45254;-71
2023/04/04 16:17:06;;;;;;;3.42;0.90;;;17.00;57.40;;;;;;5049338;28;45396;-72
2023/04/04 16:19:33;;;;;;;1.48;0.80;;;17.00;57.50;;;;;;5056223;28;45364;-73
2023/04/04 16:22:02;;;;;;;1.42;0.80;;;17.10;58.20;;;;;;5060221;28;46464;-73
2023/04/04 16:24:29;;;;;;;2.67;0.80;;;17.00;58.10;;;;;;5045199;28;45374;-73
2023/04/04 16:26:56;;;;;;;1.55;0.80;;;17.00;58.10;;;;;;5064572;28;45333;-72
2023/04/04 16:29:23;;;;;;;1.20;0.82;;;17.10;58.50;;;;;;5056818;28;45323;-73
2023/04/04 16:31:49;;;;;;;1.45;0.80;;;17.10;58.20;;;;;;5053789;28;46433;-72
2023/04/04 16:34:16;;;;;;;0.98;0.65;;;17.10;58.60;;;;;;5064282;28;45294;-72
2023/04/04 16:36:43;;;;;;;1.27;0.75;;;17.10;58.10;;;;;;5064972;28;45299;-72
2023/04/04 16:39:11;;;;;;;1.40;0.55;;;17.10;57.70;;;;;;5062620;28;45326;-72
2023/04/04 16:41:39;;;;;;;2.03;0.93;;;17.20;57.40;;;;;;5058829;28;48333;-72
2023/04/04 16:44:06;;;;;;;1.17;0.75;;;17.20;57.30;;;;;;5066978;28;45810;-72
2023/04/04 16:46:33;;;;;;;3.38;0.80;;;17.20;58.70;;;;;;5058545;28;45202;-71
2023/04/04 16:48:59;;;;;;;2.00;1.00;;;17.20;58.20;;;;;;5056101;28;45185;-71
2023/04/04 16:51:26;;;;;;;1.77;0.90;;;17.20;58.70;;;;;;5063575;28;47685;-72
2023/04/04 16:53:53;;;;;;;1.25;0.80;;;17.20;58.90;;;;;;5070618;28;45348;-72
2023/04/04 16:56:22;;;;;;;1.77;0.73;;;17.20;59.00;;;;;;5047144;28;45226;-71
2023/04/04 16:58:49;;;;;;;1.13;0.63;;;17.20;59.20;;;;;;5046974;28;45683;-71
2023/04/04 17:01:21;;;;;;;1.42;0.68;;;17.20;58.80;;;;;;5052331;28;45348;-70
2023/04/04 17:03:48;;;;;;;1.73;0.73;;;17.20;59.40;;;;;;5052519;28;45977;-71
2023/04/04 17:06:14;;;;;;;1.42;0.70;;;17.20;59.50;;;;;;5075007;28;45244;-71
2023/04/04 17:08:43;;;;;;;0.85;0.70;;;17.20;59.60;;;;;;5047429;28;45242;-72
2023/04/04 17:11:11;;;;;;;1.58;0.80;;;17.30;60.10;;;;;;5046965;28;46305;-71
2023/04/04 17:13:40;;;;;;;2.08;1.08;;;17.30;59.90;;;;;;5053852;28;45409;-72
2023/04/04 17:16:07;;;;;;;1.05;0.60;;;17.30;60.00;;;;;;5058878;28;45326;-71
2023/04/04 17:18:34;;;;;;;1.75;0.80;;;17.30;59.60;;;;;;5054462;28;45181;-72
2023/04/04 17:21:00;;;;;;;1.73;0.70;;;17.30;59.30;;;;;;5056393;28;46358;-73
2023/04/04 17:23:27;;;;;;;4.13;0.77;;;17.30;59.90;;;;;;5079755;28;45289;-73
2023/04/04 17:25:54;;;;;;;0.95;0.70;;;17.30;60.10;;;;;;5047571;28;45349;-72
2023/04/04 17:28:21;;;;;;;2.92;1.08;;;17.30;60.20;;;;;;5054512;28;45574;-73
2023/04/04 17:30:49;;;;;;;1.77;0.80;;;17.30;60.00;;;;;;5055781;28;46635;-72
2023/04/04 17:33:20;;;;;;;0.75;0.57;;;17.30;60.00;;;;;;5061456;28;45435;-72
2023/04/04 17:35:47;;;;;;;1.20;0.60;;;17.30;59.70;;;;;;5075800;28;45348;-72
2023/04/04 17:38:13;;;;;;;1.52;0.77;;;17.30;59.60;;;;;;5058654;28;45459;-72
2023/04/04 17:40:40;;;;;;;1.45;0.80;;;17.40;59.40;;;;;;5054033;28;47236;-72
2023/04/04 17:43:07;;;;;;;2.20;1.00;;;17.40;59.80;;;;;;5050508;28;45238;-72
2023/04/04 17:45:35;;;;;;;1.67;0.80;;;17.40;60.10;;;;;;5067073;28;45540;-72
2023/04/04 17:48:03;;;;;;;0.90;0.63;;;17.40;59.80;;;;;;5063100;28;45736;-72
2023/04/04 17:50:29;;;;;;;2.90;1.00;;;17.40;59.40;;;;;;5060316;28;46334;-72
2023/04/04 17:52:56;;;;;;;2.22;1.05;;;17.40;59.50;;;;;;5078649;28;45170;-73
2023/04/04 17:55:23;;;;;;;1.02;0.80;;;17.40;59.20;;;;;;5070868;28;45256;-73
2023/04/04 17:57:50;;;;;;;1.95;0.77;;;17.50;61.50;;;;;;5063299;28;45766;-72
2023/04/04 18:00:17;;;;;;;1.42;0.82;;;17.50;61.40;;;;;;5059455;28;46356;-73
2023/04/04 18:02:44;;;;;;;1.83;0.90;;;17.50;59.20;;;;;;5059479;28;45237;-72
2023/04/04 18:05:13;;;;;;;58.83;5.22;;;17.50;58.70;;;;;;5058439;28;45350;-68
2023/04/04 18:07:40;;;;;;;20.55;1.98;;;17.50;63.80;;;;;;5056201;28;45272;-74
2023/04/04 18:10:08;;;;;;;3.45;1.25;;;17.60;63.60;;;;;;5071896;28;47836;-74
2023/04/04 18:12:35;;;;;;;6.82;1.10;;;17.60;59.70;;;;;;5086627;28;45303;-73
2023/04/04 18:15:02;;;;;;;9.50;1.27;;;17.60;59.40;;;;;;5054246;28;45281;-73
2023/04/04 18:17:30;;;;;;;5.15;1.27;;;17.60;58.70;;;;;;5058047;28;45724;-74
2023/04/04 18:19:57;;;;;;;6.25;1.10;;;17.60;58.60;;;;;;5075013;28;46535;-73
2023/04/04 18:22:26;;;;;;;4.28;1.02;;;17.60;58.50;;;;;;5066026;28;45768;-73
2023/04/04 18:24:53;;;;;;;5.25;1.50;;;17.60;58.60;;;;;;5057503;28;45310;-73
2023/04/04 18:27:20;;;;;;;4.05;1.33;;;17.60;58.40;;;;;;5064933;28;45253;-73
2023/04/04 18:29:47;;;;;;;7.95;1.30;;;17.60;58.70;;;;;;5050396;28;46486;-73
2023/04/04 18:32:13;;;;;;;3.75;1.20;;;17.50;58.80;;;;;;5066294;28;45228;-73
2023/04/04 18:34:40;;;;;;;4.53;1.00;;;17.50;58.50;;;;;;5067573;28;45182;-73
2023/04/04 18:37:07;;;;;;;3.75;1.00;;;17.50;57.90;;;;;;5069779;28;45482;-73
2023/04/04 18:39:35;;;;;;;1.00;0.63;;;17.50;58.00;;;;;;5065846;28;45298;-73
2023/04/04 18:42:02;;;;;;;3.30;0.98;;;17.50;58.80;;;;;;5064353;28;45380;-74
2023/04/04 18:44:31;;;;;;;1.63;1.00;;;17.50;58.30;;;;;;5056676;28;45382;-73
2023/04/04 18:47:02;;;;;;;4.80;1.17;;;17.50;58.40;;;;;;5066113;28;45192;-73
2023/04/04 18:49:30;;;;;;;5.28;1.25;;;17.50;58.80;;;;;;5074863;28;46735;-73
2023/04/04 18:51:57;;;;;;;2.42;0.82;;;17.50;59.00;;;;;;5061895;28;45393;-73
2023/04/04 18:54:25;;;;;;;2.67;1.10;;;17.50;58.80;;;;;;5045677;28;45309;-73
2023/04/04 18:56:54;;;;;;;2.65;1.10;;;17.40;59.20;;;;;;5058684;28;45286;-73
2023/04/04 18:59:22;;;;;;;2.25;0.85;;;17.40;58.50;;;;;;5065568;28;47584;-74
2023/04/04 19:01:51;;;;;;;1.45;1.02;;;17.50;57.90;;;;;;5074040;28;45330;-73
2023/04/04 19:04:20;;;;;;;1.10;0.93;;;17.40;58.60;;;;;;5057287;28;45462;-73
2023/04/04 19:06:48;;;;;;;2.78;0.98;;;17.40;58.40;;;;;;5074681;28;45157;-73
2023/04/04 19:09:15;;;;;;;2.03;0.90;;;17.40;58.40;;;;;;5065796;28;45545;-73
2023/04/04 19:11:44;;;;;;;1.95;0.98;;;17.40;58.20;;;;;;5063984;28;45365;-73
2023/04/04 19:14:12;;;;;;;1.08;0.70;;;17.40;58.80;;;;;;5063775;28;45221;-73
2023/04/04 19:16:40;;;;;;;2.22;1.00;;;17.40;58.80;;;;;;5066120;28;45417;-73
2023/04/04 19:19:06;;;;;;;2.70;0.98;;;17.30;58.40;;;;;;5062628;28;45180;-74
2023/04/04 19:21:33;;;;;;;1.92;0.80;;;17.30;58.80;;;;;;5077461;28;45283;-75
2023/04/04 19:24:00;;;;;;;2.05;0.98;;;17.30;58.80;;;;;;5065981;28;45198;-74
2023/04/04 19:26:27;;;;;;;2.17;0.90;;;17.30;58.90;;;;;;5065789;28;45427;-74
2023/04/04 19:28:54;;;;;;;1.73;1.10;;;17.30;59.00;;;;;;5057431;28;48401;-75
2023/04/04 19:31:28;;;;;;;1.70;0.80;;;17.30;58.90;;;;;;5066540;28;45251;-75
2023/04/04 19:33:55;;;;;;;1.02;0.82;;;17.30;59.10;;;;;;5078402;28;45523;-74
2023/04/04 19:36:23;;;;;;;1.10;0.90;;;17.30;58.30;;;;;;5070556;28;45400;-74
2023/04/04 19:38:52;;;;;;;1.30;0.70;;;17.30;57.50;;;;;;5073593;28;47602;-74
2023/04/04 19:41:33;;;;;;;3.13;0.95;;;17.30;58.00;;;;;;5071832;28;45410;-73
2023/04/04 19:44:00;;;;;;;1.60;1.00;;;17.30;57.70;;;;;;5081205;28;45255;-73
2023/04/04 19:46:30;;;;;;;1.88;1.08;;;17.30;57.00;;;;;;5049605;28;45238;-75
2023/04/04 19:48:57;;;;;;;3.38;1.35;;;17.20;57.00;;;;;;5046098;28;47040;-75
2023/04/04 19:51:48;;;;;;;1.55;0.90;;;17.20;56.50;;;;;;5045532;28;45293;-74
2023/04/04 19:54:15;;;;;;;2.88;1.08;;;17.20;56.10;;;;;;5074841;28;45189;-73
2023/04/04 19:56:44;;;;;;;1.55;0.80;;;17.20;56.60;;;;;;5058665;28;45502;-74
2023/04/04 19:59:45;;;;;;;1.92;1.00;;;17.30;56.70;;;;;;5065029;28;47031;-73
2023/04/04 20:02:46;;;;;;;3.13;1.13;;;17.30;57.30;;;;;;5067791;28;45292;-74
2023/04/04 20:05:51;;;;;;;2.35;1.02;;;17.30;57.10;;;;;;5053210;28;45134;-73
2023/04/04 20:08:18;;;;;;;2.55;1.15;;;17.30;57.80;;;;;;5067111;28;45352;-74
2023/04/04 20:10:45;;;;;;;4.00;1.10;;;17.30;57.50;;;;;;5065686;28;46633;-73
2023/04/04 20:13:12;;;;;;;2.08;1.02;;;17.30;57.90;;;;;;5055436;28;45295;-74
2023/04/04 20:15:56;;;;;;;2.13;0.90;;;17.30;58.00;;;;;;5064630;28;45334;-74
2023/04/04 20:18:26;;;;;;;1.90;1.05;;;17.30;58.10;;;;;;5072566;28;45181;-74
2023/04/04 20:20:58;;;;;;;2.15;1.00;;;17.30;59.30;;;;;;5061402;28;47131;-73
2023/04/04 20:23:26;;;;;;;1.70;0.88;;;17.20;58.10;;;;;;5053432;28;45391;-74
2023/04/04 20:25:52;;;;;;;2.42;1.10;;;17.30;58.10;;;;;;5064801;28;45360;-74
2023/04/04 20:28:23;;;;;;;1.95;1.02;;;17.30;58.20;;;;;;5080632;28;45150;-74
2023/04/04 20:30:50;;;;;;;1.92;1.10;;;17.20;58.40;;;;;;5070642;28;48736;-74
2023/04/04 20:33:38;;;;;;;2.00;0.95;;;17.20;58.10;;;;;;5066603;28;45131;-74